Terminal Aerodrome Forecast
Issued by NWS Boston, MA

Current Version | Previous Version | Text Only | Print | Product List | Glossary On
Versions: 1 2 3 4 5 6 7 8 9 10 11 12 13 14 15 16 17 18 19 20 21 22 23 24
000
FTUS41 KBOX 280538
TAFBOS
TAF
KBOS 280538Z 2806/2912 01004KT 6SM BR OVC005
     FM280900 VRB03KT 5SM BR OVC003
     FM281200 VRB03KT 3SM -DZ BR OVC003
     FM281600 09004KT 5SM BR OVC008
     FM282000 VRB03KT 3SM -RA BR OVC008
     FM290500 VRB03KT 1SM BR VCSH OVC003
     FM291000 35006KT P6SM OVC010=

USA.gov is the U.S. government's official web portal to all federal, state and local government web resources and services.